Seabourn Legend — C6FR6 — position and weather

sailwx.info

Track history (hours):
 
Tides and Currents Weather Stations Pressure Air Temp Water Temp Dewpoint Dewpoint Depression Visibility Wind Speed Wind Dir Waves Ship Positions

Seabourn Legend

Operator: Cunard Seabourn

Last reported at 2017-Feb-22 04:33 UTC. Time now 2017-Feb-23 02:34 UTC.
Position N 17°16' W 062°13'.

Length 135 m; draft 5.5 m.

Type: Passenger vessel. MMSI: 311085000.

Date/timePositionNaut miles runAvg speedWind from/ knotsBaromVisibWave heightAir tempDewpointWater temp
2017-Feb-22 04:33N 17°16' W 062°13'9 8.9
2017-Feb-22 03:33N 17°13' W 062°04'9 9.0
2017-Feb-22 02:33N 17°09' W 061°56'4 4.0
2017-Feb-22 01:31N 17°08' W 061°51'0 0.0
2017-Feb-22 00:31N 17°08' W 061°51'0 0.0
2017-Feb-21 23:33N 17°08' W 061°51'0 0.0
2017-Feb-21 22:33N 17°08' W 061°51'0 0.0
2017-Feb-21 21:32N 17°08' W 061°51'0 0.0
2017-Feb-21 20:32N 17°08' W 061°51'0 0.0
2017-Feb-21 19:29N 17°08' W 061°51'0 0.0
2017-Feb-21 16:31N 17°08' W 061°51'0 0.0
2017-Feb-21 15:33N 17°08' W 061°51'0 0.0
2017-Feb-21 14:33N 17°08' W 061°51'0 0.0
2017-Feb-21 13:32N 17°08' W 061°51'0 0.0
2017-Feb-21 12:32N 17°08' W 061°51'1 1.4
2017-Feb-21 11:33N 17°08' W 061°53'1312.6
2017-Feb-21 10:33N 17°15' W 062°04'10 9.5
2017-Feb-21 09:33N 17°20' W 062°12'9 9.5
2017-Feb-21 08:33N 17°25' W 062°21'610.2
2017-Feb-21 08:00N 17°30' W 062°24'510.2 210 / 131010.310.8 23.018.3
2017-Feb-21 07:33N 17°31' W 062°29'38 8.8
2017-Feb-21 03:17N 17°54' W 062°60'8 9.3
2017-Feb-21 02:26N 17°60' W 063°06'3 0.2
2017-Feb-20 09:26N 18°00' W 063°09'7 7.9
2017-Feb-20 08:32N 18°03' W 063°15'8 7.8
2017-Feb-20 07:29N 18°07' W 063°23'8 7.9
2017-Feb-20 06:31N 18°10' W 063°31'46 9.0
2017-Feb-20 01:28N 18°30' W 064°14'9 9.8
2017-Feb-20 00:34N 18°33' W 064°22'10 9.5
2017-Feb-19 23:28N 18°33' W 064°34'9 9.5
2017-Feb-19 22:32N 18°27' W 064°41'4 4.4
2017-Feb-19 21:33N 18°26' W 064°45'0 0.0
2017-Feb-19 15:31N 18°26' W 064°45'0 0.0
2017-Feb-19 12:24N 18°26' W 064°45'1 1.6
2017-Feb-19 11:30N 18°25' W 064°46'1111.0
2017-Feb-19 10:31N 18°28' W 064°57'17 0.3
2017-Feb-17 07:20N 18°10' W 064°57'1113.7
2017-Feb-17 06:33N 18°08' W 064°46'9212.3
2017-Feb-16 23:04N 17°57' W 063°09'20 3.3
2017-Feb-16 17:00N 17°54' W 062°48'42 3.6 1019.510.8 26.516.9
2017-Feb-16 05:15N 17°20' W 062°23'5 7.7
2017-Feb-16 04:33N 17°15' W 062°20'9 8.8
2017-Feb-16 03:33N 17°06' W 062°18'10 9.6
2017-Feb-16 02:30N 16°57' W 062°15'9 8.7
2017-Feb-16 01:29N 16°48' W 062°13'0 0.0
2017-Feb-16 00:31N 16°48' W 062°13'0 0.0
2017-Feb-15 23:28N 16°48' W 062°13'0 0.0
2017-Feb-15 22:27N 16°48' W 062°13'0 0.0
2017-Feb-15 21:30N 16°48' W 062°13'0 0.0
2017-Feb-15 20:29N 16°48' W 062°13'0 0.0
2017-Feb-15 19:32N 16°48' W 062°13'0 0.0
2017-Feb-15 18:29N 16°48' W 062°13'0 0.0
2017-Feb-15 17:31N 16°48' W 062°13'0 0.0
2017-Feb-15 16:28N 16°48' W 062°13'0 0.0
2017-Feb-15 15:18N 16°48' W 062°13'0 0.0
2017-Feb-15 14:27N 16°48' W 062°13'0 0.0
2017-Feb-15 13:32N 16°48' W 062°13'0 0.0
2017-Feb-15 12:32N 16°48' W 062°13'0 0.0
2017-Feb-15 11:33N 16°48' W 062°13'6 6.2
2017-Feb-15 10:33N 16°43' W 062°17'6 6.0
2017-Feb-15 09:33N 16°38' W 062°20'7 6.3
2017-Feb-15 08:31N 16°33' W 062°23'6 6.0
2017-Feb-15 07:33N 16°27' W 062°26'62 2.9
2017-Feb-14 10:27N 15°43' W 061°42'6314.3
2017-Feb-14 06:00N 14°42' W 061°24'61 2.7 1014.710.8 24.017.6
2017-Feb-13 07:00N 13°42' W 061°12'42 3.8 080 / 151014.010.8 24.016.7
2017-Feb-12 20:00N 13°00' W 061°12'   1013.810.8 26.517.9
Track history (hours):
 
Tides and Currents Weather Stations Pressure Air Temp Water Temp Dewpoint Dewpoint Depression Visibility Wind Speed Wind Dir Waves Ship Positions

Seabourn Legend

Operator: Cunard Seabourn

Last reported at 2017-Feb-22 04:33 UTC. Time now 2017-Feb-23 02:34 UTC.
Position N 17°16' W 062°13'.

Length 135 m; draft 5.5 m.

Type: Passenger vessel. MMSI: 311085000.

Date/timePositionNaut miles runAvg speedWind from/ knotsBaromVisibWave heightAir tempDewpointWater temp
2017-Feb-22 04:33N 17°16' W 062°13'9 8.9
2017-Feb-22 03:33N 17°13' W 062°04'9 9.0
2017-Feb-22 02:33N 17°09' W 061°56'4 4.0
2017-Feb-22 01:31N 17°08' W 061°51'0 0.0
2017-Feb-22 00:31N 17°08' W 061°51'0 0.0
2017-Feb-21 23:33N 17°08' W 061°51'0 0.0
2017-Feb-21 22:33N 17°08' W 061°51'0 0.0
2017-Feb-21 21:32N 17°08' W 061°51'0 0.0
2017-Feb-21 20:32N 17°08' W 061°51'0 0.0
2017-Feb-21 19:29N 17°08' W 061°51'0 0.0
2017-Feb-21 16:31N 17°08' W 061°51'0 0.0
2017-Feb-21 15:33N 17°08' W 061°51'0 0.0
2017-Feb-21 14:33N 17°08' W 061°51'0 0.0
2017-Feb-21 13:32N 17°08' W 061°51'0 0.0
2017-Feb-21 12:32N 17°08' W 061°51'1 1.4
2017-Feb-21 11:33N 17°08' W 061°53'1312.6
2017-Feb-21 10:33N 17°15' W 062°04'10 9.5
2017-Feb-21 09:33N 17°20' W 062°12'9 9.5
2017-Feb-21 08:33N 17°25' W 062°21'610.2
2017-Feb-21 08:00N 17°30' W 062°24'510.2 210 / 131010.310.8 23.018.3
2017-Feb-21 07:33N 17°31' W 062°29'38 8.8
2017-Feb-21 03:17N 17°54' W 062°60'8 9.3
2017-Feb-21 02:26N 17°60' W 063°06'3 0.2
2017-Feb-20 09:26N 18°00' W 063°09'7 7.9
2017-Feb-20 08:32N 18°03' W 063°15'8 7.8
2017-Feb-20 07:29N 18°07' W 063°23'8 7.9
2017-Feb-20 06:31N 18°10' W 063°31'46 9.0
2017-Feb-20 01:28N 18°30' W 064°14'9 9.8
2017-Feb-20 00:34N 18°33' W 064°22'10 9.5
2017-Feb-19 23:28N 18°33' W 064°34'9 9.5
2017-Feb-19 22:32N 18°27' W 064°41'4 4.4
2017-Feb-19 21:33N 18°26' W 064°45'0 0.0
2017-Feb-19 15:31N 18°26' W 064°45'0 0.0
2017-Feb-19 12:24N 18°26' W 064°45'1 1.6
2017-Feb-19 11:30N 18°25' W 064°46'1111.0
2017-Feb-19 10:31N 18°28' W 064°57'17 0.3
2017-Feb-17 07:20N 18°10' W 064°57'1113.7
2017-Feb-17 06:33N 18°08' W 064°46'9212.3
2017-Feb-16 23:04N 17°57' W 063°09'20 3.3
2017-Feb-16 17:00N 17°54' W 062°48'42 3.6 1019.510.8 26.516.9
2017-Feb-16 05:15N 17°20' W 062°23'5 7.7
2017-Feb-16 04:33N 17°15' W 062°20'9 8.8
2017-Feb-16 03:33N 17°06' W 062°18'10 9.6
2017-Feb-16 02:30N 16°57' W 062°15'9 8.7
2017-Feb-16 01:29N 16°48' W 062°13'0 0.0
2017-Feb-16 00:31N 16°48' W 062°13'0 0.0
2017-Feb-15 23:28N 16°48' W 062°13'0 0.0
2017-Feb-15 22:27N 16°48' W 062°13'0 0.0
2017-Feb-15 21:30N 16°48' W 062°13'0 0.0
2017-Feb-15 20:29N 16°48' W 062°13'0 0.0
2017-Feb-15 19:32N 16°48' W 062°13'0 0.0
2017-Feb-15 18:29N 16°48' W 062°13'0 0.0
2017-Feb-15 17:31N 16°48' W 062°13'0 0.0
2017-Feb-15 16:28N 16°48' W 062°13'0 0.0
2017-Feb-15 15:18N 16°48' W 062°13'0 0.0
2017-Feb-15 14:27N 16°48' W 062°13'0 0.0
2017-Feb-15 13:32N 16°48' W 062°13'0 0.0
2017-Feb-15 12:32N 16°48' W 062°13'0 0.0
2017-Feb-15 11:33N 16°48' W 062°13'6 6.2
2017-Feb-15 10:33N 16°43' W 062°17'6 6.0
2017-Feb-15 09:33N 16°38' W 062°20'7 6.3
2017-Feb-15 08:31N 16°33' W 062°23'6 6.0
2017-Feb-15 07:33N 16°27' W 062°26'62 2.9
2017-Feb-14 10:27N 15°43' W 061°42'6314.3
2017-Feb-14 06:00N 14°42' W 061°24'61 2.7 1014.710.8 24.017.6
2017-Feb-13 07:00N 13°42' W 061°12'42 3.8 080 / 151014.010.8 24.016.7
2017-Feb-12 20:00N 13°00' W 061°12'   1013.810.8 26.517.9

Dump ship's entire track history